Time;durP1;ratioP1;P1;durP2;ratioP2;P2;SDS_P1;SDS_P2;PMS_P1;PMS_P2;Temp;Humidity;BMP_temperature;BMP_pressure;BME280_temperature;BME280_humidity;BME280_pressure;Samples;Min_cycle;Max_cycle;Signal;HPM_P1;HPM_P2
2023/04/27 00:00:24;;;;;;;2.17;2.07;;;23.10;57.10;;;;;;5029681;28;20460;-75
2023/04/27 00:02:52;;;;;;;2.20;1.80;;;23.10;57.10;;;;;;5029030;28;20463;-77
2023/04/27 00:05:21;;;;;;;2.23;2.03;;;23.00;57.10;;;;;;5032576;28;20467;-74
2023/04/27 00:07:49;;;;;;;2.43;2.27;;;23.00;57.10;;;;;;5031775;28;20472;-74
2023/04/27 00:10:19;;;;;;;2.37;2.17;;;23.00;57.10;;;;;;5031329;28;20968;-74
2023/04/27 00:12:47;;;;;;;2.40;2.03;;;23.00;57.10;;;;;;5031114;28;20514;-74
2023/04/27 00:15:15;;;;;;;2.17;2.07;;;23.00;57.10;;;;;;5025924;28;20457;-74
2023/04/27 00:17:43;;;;;;;1.97;1.87;;;23.00;57.10;;;;;;5019823;28;20944;-75
2023/04/27 00:20:12;;;;;;;2.53;2.33;;;23.00;57.00;;;;;;5032020;28;20484;-74
2023/04/27 00:22:40;;;;;;;2.13;2.03;;;23.00;57.00;;;;;;5030591;28;20486;-75
2023/04/27 00:25:09;;;;;;;2.60;2.00;;;23.00;57.00;;;;;;5032088;28;20493;-75
2023/04/27 00:27:39;;;;;;;2.40;2.20;;;23.00;57.00;;;;;;5030337;28;20467;-76
2023/04/27 00:30:08;;;;;;;2.50;2.03;;;23.00;57.00;;;;;;5007009;28;20871;-80
2023/04/27 00:32:37;;;;;;;2.27;2.07;;;23.00;57.00;;;;;;5007979;28;20503;-75
2023/04/27 00:35:05;;;;;;;2.57;2.00;;;23.00;57.00;;;;;;5032124;28;20425;-78
2023/04/27 00:37:34;;;;;;;2.27;1.67;;;23.00;57.00;;;;;;5030779;28;20523;-75
2023/04/27 00:40:05;;;;;;;2.23;2.13;;;22.90;57.00;;;;;;5012401;28;20487;-75
2023/04/27 00:42:33;;;;;;;2.17;2.07;;;22.90;57.00;;;;;;5030896;28;20466;-74
2023/04/27 00:45:04;;;;;;;2.43;1.93;;;22.90;57.00;;;;;;5031929;28;20431;-74
2023/04/27 00:47:33;;;;;;;2.33;2.17;;;22.90;57.00;;;;;;5030541;28;20553;-74
2023/04/27 00:50:03;;;;;;;2.03;1.93;;;22.90;57.00;;;;;;5027004;28;20456;-75
2023/04/27 00:52:31;;;;;;;2.30;2.10;;;22.90;57.00;;;;;;5026554;28;20881;-75
2023/04/27 00:55:03;;;;;;;1.93;1.80;;;22.90;56.90;;;;;;5029993;28;20530;-75
2023/04/27 00:57:33;;;;;;;2.30;1.93;;;22.90;56.90;;;;;;5012239;28;20487;-75
2023/04/27 01:00:05;;;;;;;2.80;2.30;;;22.90;57.00;;;;;;5017402;28;20489;-74
2023/04/27 01:02:35;;;;;;;1.87;1.73;;;22.90;56.90;;;;;;5012868;28;20850;-78
2023/04/27 01:05:04;;;;;;;2.20;1.77;;;22.90;56.90;;;;;;5010544;28;20891;-78
2023/04/27 01:07:32;;;;;;;1.90;1.80;;;22.90;56.90;;;;;;5010724;28;20476;-74
2023/04/27 01:10:00;;;;;;;2.13;1.97;;;22.90;56.90;;;;;;4995257;28;20463;-74
2023/04/27 01:12:29;;;;;;;2.00;1.90;;;22.80;56.90;;;;;;5013039;28;20461;-76
2023/04/27 01:14:57;;;;;;;2.20;2.00;;;22.80;56.90;;;;;;5031264;28;20435;-75
2023/04/27 01:17:27;;;;;;;2.23;2.03;;;22.80;56.90;;;;;;5026132;28;20464;-74
2023/04/27 01:19:55;;;;;;;2.17;1.97;;;22.80;56.90;;;;;;5031007;28;20929;-74
2023/04/27 01:22:23;;;;;;;1.70;1.60;;;22.80;56.90;;;;;;5026851;28;20499;-77
2023/04/27 01:24:54;;;;;;;2.70;2.10;;;22.80;56.90;;;;;;5013801;28;20856;-75
2023/04/27 01:27:23;;;;;;;1.90;1.80;;;22.80;56.90;;;;;;5025686;28;20777;-76
2023/04/27 01:29:51;;;;;;;1.80;1.70;;;22.80;56.90;;;;;;5025422;28;20483;-78
2023/04/27 01:32:20;;;;;;;2.10;1.90;;;22.80;56.80;;;;;;5030340;28;20460;-74
2023/04/27 01:34:51;;;;;;;1.87;1.77;;;22.80;56.90;;;;;;5007584;28;20861;-75
2023/04/27 01:37:20;;;;;;;2.17;2.00;;;22.80;56.80;;;;;;5023057;28;20522;-74
2023/04/27 01:39:48;;;;;;;1.80;1.70;;;22.80;56.80;;;;;;5022528;28;20464;-75
2023/04/27 01:42:17;;;;;;;2.07;1.97;;;22.70;56.80;;;;;;5029579;28;20578;-75
2023/04/27 01:44:45;;;;;;;2.10;2.00;;;22.70;56.80;;;;;;5013640;28;20441;-75
2023/04/27 01:47:16;;;;;;;2.03;1.93;;;22.70;56.80;;;;;;5029341;28;20824;-75
2023/04/27 01:49:44;;;;;;;1.80;1.70;;;22.70;56.80;;;;;;5027205;28;20500;-76
2023/04/27 01:52:17;;;;;;;1.57;1.47;;;22.70;56.80;;;;;;5010416;28;21238;-75
2023/04/27 01:54:45;;;;;;;1.80;1.70;;;22.70;56.80;;;;;;5029284;28;20445;-75
2023/04/27 01:57:14;;;;;;;2.60;2.03;;;22.70;56.80;;;;;;5010369;28;20503;-79
2023/04/27 01:59:43;;;;;;;1.70;1.60;;;22.70;56.80;;;;;;5011846;28;20450;-74
2023/04/27 02:02:12;;;;;;;1.90;1.80;;;22.70;56.80;;;;;;5009951;28;20459;-76
2023/04/27 02:04:41;;;;;;;1.87;1.77;;;22.70;56.80;;;;;;5028408;28;20621;-77
2023/04/27 02:07:10;;;;;;;1.80;1.70;;;22.70;56.80;;;;;;5021931;28;20557;-75
2023/04/27 02:09:38;;;;;;;2.50;1.90;;;22.60;56.80;;;;;;5019116;28;20989;-75
2023/04/27 02:12:07;;;;;;;1.57;1.50;;;22.60;56.80;;;;;;5031607;28;20504;-74
2023/04/27 02:14:35;;;;;;;1.70;1.60;;;22.60;56.80;;;;;;5017256;28;20513;-75
2023/04/27 02:17:05;;;;;;;1.60;1.50;;;22.60;56.80;;;;;;5016592;28;21031;-79
2023/04/27 02:19:33;;;;;;;2.00;1.83;;;22.60;56.80;;;;;;5032727;28;20464;-79
2023/04/27 02:22:02;;;;;;;1.63;1.53;;;22.60;56.90;;;;;;5006232;28;20483;-75
2023/04/27 02:24:30;;;;;;;1.70;1.60;;;22.60;56.80;;;;;;5016739;28;20550;-75
2023/04/27 02:26:58;;;;;;;2.20;2.07;;;22.60;56.90;;;;;;5016709;28;20517;-75
2023/04/27 02:29:30;;;;;;;2.03;1.93;;;22.60;56.80;;;;;;5034454;28;20526;-75
2023/04/27 02:31:58;;;;;;;1.90;1.70;;;22.60;56.80;;;;;;5025147;28;20557;-75
2023/04/27 02:34:28;;;;;;;2.10;1.83;;;22.60;56.90;;;;;;5034021;28;21064;-78
2023/04/27 02:36:56;;;;;;;1.97;1.87;;;22.60;56.80;;;;;;5033695;28;20458;-74
2023/04/27 02:39:25;;;;;;;1.90;1.80;;;22.50;56.80;;;;;;5015855;28;20583;-77
2023/04/27 02:41:53;;;;;;;1.97;1.87;;;22.50;56.80;;;;;;5030990;28;20498;-77
2023/04/27 02:44:22;;;;;;;1.90;1.80;;;22.50;56.80;;;;;;5009727;28;20534;-76
2023/04/27 02:46:51;;;;;;;2.40;2.20;;;22.50;56.80;;;;;;5017494;28;20490;-76
2023/04/27 02:49:22;;;;;;;2.23;2.03;;;22.50;56.80;;;;;;5016163;28;20459;-76
2023/04/27 02:51:51;;;;;;;1.80;1.70;;;22.50;56.80;;;;;;5012181;28;20892;-75
2023/04/27 02:54:19;;;;;;;1.87;1.70;;;22.50;56.80;;;;;;5033639;28;20442;-76
2023/04/27 02:56:47;;;;;;;1.90;1.80;;;22.50;56.80;;;;;;5029911;28;20546;-76
2023/04/27 02:59:16;;;;;;;1.70;1.60;;;22.50;56.70;;;;;;5031853;28;20459;-75
2023/04/27 03:01:44;;;;;;;1.93;1.83;;;22.50;56.70;;;;;;5002985;28;20467;-78
2023/04/27 03:04:13;;;;;;;2.00;1.90;;;22.50;56.70;;;;;;4996710;28;20460;-76
2023/04/27 03:06:42;;;;;;;2.10;1.73;;;22.50;56.70;;;;;;5012615;28;20492;-74
2023/04/27 03:09:12;;;;;;;2.37;2.27;;;22.50;56.70;;;;;;5022612;28;20526;-77
2023/04/27 03:11:41;;;;;;;1.90;1.80;;;22.50;56.70;;;;;;5028970;28;20526;-76
2023/04/27 03:14:09;;;;;;;1.67;1.57;;;22.40;56.70;;;;;;5033284;28;20495;-75
2023/04/27 03:16:37;;;;;;;1.80;1.70;;;22.50;56.70;;;;;;5015435;28;20814;-79
2023/04/27 03:19:06;;;;;;;1.77;1.67;;;22.40;56.70;;;;;;5025349;28;20569;-75
2023/04/27 03:21:34;;;;;;;2.07;1.90;;;22.40;56.70;;;;;;5027092;28;21034;-78
2023/04/27 03:24:03;;;;;;;2.13;1.93;;;22.40;56.70;;;;;;5015141;28;20494;-75
2023/04/27 03:26:33;;;;;;;1.70;1.60;;;22.40;56.70;;;;;;5033084;28;20448;-75
2023/04/27 03:29:01;;;;;;;1.60;1.50;;;22.40;56.60;;;;;;5033200;28;20530;-75
2023/04/27 03:31:29;;;;;;;4.23;1.93;;;22.40;56.70;;;;;;5009959;28;20507;-75
2023/04/27 03:33:57;;;;;;;2.03;1.93;;;22.40;56.70;;;;;;5032659;28;20459;-75
2023/04/27 03:36:25;;;;;;;2.17;2.07;;;22.40;56.60;;;;;;5031896;28;20456;-78
2023/04/27 03:38:53;;;;;;;1.83;1.73;;;22.40;56.60;;;;;;5015152;28;20978;-77
2023/04/27 03:41:22;;;;;;;2.20;2.00;;;22.40;56.60;;;;;;5024405;28;20546;-76
2023/04/27 03:43:52;;;;;;;2.23;1.97;;;22.40;56.60;;;;;;5009457;28;20978;-76
2023/04/27 03:46:20;;;;;;;2.03;1.93;;;22.40;56.70;;;;;;5011737;28;20457;-82
2023/04/27 03:48:49;;;;;;;2.03;1.93;;;22.40;56.70;;;;;;5000945;28;20468;-79
2023/04/27 03:51:18;;;;;;;1.73;1.47;;;22.40;56.80;;;;;;5011096;28;20567;-77
2023/04/27 03:53:47;;;;;;;1.53;1.43;;;22.40;56.90;;;;;;5014248;28;20472;-77
2023/04/27 03:56:15;;;;;;;1.30;1.30;;;22.40;56.90;;;;;;5014775;28;20455;-79
2023/04/27 03:58:43;;;;;;;1.70;1.60;;;22.40;56.90;;;;;;5032799;28;20494;-78
2023/04/27 04:01:18;;;;;;;1.63;1.53;;;22.40;56.90;;;;;;5014991;28;20463;-77
2023/04/27 04:03:47;;;;;;;1.67;1.57;;;22.40;56.90;;;;;;5014174;28;20472;-77
2023/04/27 04:06:15;;;;;;;1.60;1.50;;;22.40;56.90;;;;;;5025632;28;20511;-78
2023/04/27 04:08:45;;;;;;;1.40;1.40;;;22.40;56.90;;;;;;5002117;28;20480;-77
2023/04/27 04:11:13;;;;;;;1.50;1.40;;;22.50;56.80;;;;;;5013958;28;20486;-81
2023/04/27 04:13:41;;;;;;;2.30;1.67;;;22.50;56.80;;;;;;5013424;28;20463;-76
2023/04/27 04:16:10;;;;;;;1.90;1.80;;;22.50;56.80;;;;;;5027916;28;20822;-76
2023/04/27 04:18:40;;;;;;;1.90;1.70;;;22.50;56.80;;;;;;5014264;28;20447;-75
2023/04/27 04:21:10;;;;;;;1.73;1.57;;;22.50;56.80;;;;;;5014125;28;20491;-78
2023/04/27 04:23:39;;;;;;;1.20;1.20;;;22.60;56.70;;;;;;5013380;28;20467;-77
2023/04/27 04:26:09;;;;;;;1.60;1.50;;;22.60;56.60;;;;;;5013647;28;21102;-78
2023/04/27 04:28:37;;;;;;;1.67;1.57;;;22.60;56.50;;;;;;5012516;28;20471;-76
2023/04/27 04:31:07;;;;;;;2.07;1.97;;;22.60;56.40;;;;;;5009209;28;20809;-75
2023/04/27 04:33:35;;;;;;;1.40;1.40;;;22.70;56.30;;;;;;5013192;28;21070;-76
2023/04/27 04:36:05;;;;;;;1.10;1.10;;;22.70;56.30;;;;;;5013530;28;20948;-83
2023/04/27 04:38:34;;;;;;;1.47;1.37;;;22.70;56.20;;;;;;5045016;28;21014;-78
2023/04/27 04:41:02;;;;;;;1.70;1.60;;;22.70;56.20;;;;;;5009812;28;20506;-76
2023/04/27 04:43:33;;;;;;;2.60;1.70;;;22.70;56.20;;;;;;5012618;28;20459;-76
2023/04/27 04:46:05;;;;;;;1.40;1.30;;;22.60;56.20;;;;;;5012535;28;20471;-77
2023/04/27 04:48:34;;;;;;;1.67;1.57;;;22.60;56.20;;;;;;5013704;28;20997;-79
2023/04/27 04:51:06;;;;;;;1.80;1.70;;;22.60;56.20;;;;;;5010289;28;20505;-75
2023/04/27 04:53:35;;;;;;;1.50;1.40;;;22.60;56.30;;;;;;5009197;28;20805;-76
2023/04/27 04:56:11;;;;;;;1.63;1.53;;;22.60;56.30;;;;;;5030208;28;20459;-81
2023/04/27 04:58:39;;;;;;;1.50;1.40;;;22.60;56.30;;;;;;5025798;28;20470;-79
2023/04/27 05:01:07;;;;;;;1.70;1.50;;;22.60;56.50;;;;;;5027225;28;21177;-78
2023/04/27 05:03:36;;;;;;;1.73;1.63;;;22.60;56.40;;;;;;5028035;28;22323;-78
2023/04/27 05:06:06;;;;;;;1.50;1.40;;;22.60;56.60;;;;;;5029631;28;20957;-76
2023/04/27 05:08:34;;;;;;;3.43;2.00;;;22.60;56.70;;;;;;5029786;28;20475;-77
2023/04/27 05:11:02;;;;;;;3.20;1.60;;;22.60;56.80;;;;;;5023811;28;20463;-78
2023/04/27 05:13:31;;;;;;;2.00;1.70;;;22.60;56.90;;;;;;5021957;28;20460;-73
2023/04/27 05:15:59;;;;;;;1.70;1.37;;;22.50;57.00;;;;;;5031632;28;20454;-75
2023/04/27 05:18:27;;;;;;;2.07;1.77;;;22.50;57.10;;;;;;5030824;28;21013;-74
2023/04/27 05:20:55;;;;;;;1.53;1.43;;;22.50;57.20;;;;;;5030608;28;20478;-74
2023/04/27 05:23:25;;;;;;;5.97;1.77;;;22.50;57.40;;;;;;5026164;28;20857;-83
2023/04/27 05:25:53;;;;;;;2.63;2.03;;;22.50;57.50;;;;;;5029761;28;20813;-75
2023/04/27 05:28:21;;;;;;;2.13;1.90;;;22.50;57.60;;;;;;5030162;28;21057;-81
2023/04/27 05:30:49;;;;;;;2.70;1.93;;;22.50;57.70;;;;;;5035081;28;20525;-81
2023/04/27 05:33:17;;;;;;;2.00;1.80;;;22.50;57.70;;;;;;5031102;28;20967;-74
2023/04/27 05:35:45;;;;;;;1.77;1.67;;;22.50;57.80;;;;;;5031530;28;20449;-75
2023/04/27 05:38:16;;;;;;;2.97;1.67;;;22.50;57.80;;;;;;5011115;28;20517;-76
2023/04/27 05:40:45;;;;;;;1.90;1.80;;;22.50;57.70;;;;;;5029200;28;20450;-77
2023/04/27 05:43:13;;;;;;;2.07;1.87;;;22.50;57.70;;;;;;5031048;28;20454;-75
2023/04/27 05:45:42;;;;;;;3.53;1.83;;;22.50;57.70;;;;;;5032199;28;20568;-76
2023/04/27 05:48:10;;;;;;;2.70;1.50;;;22.60;57.70;;;;;;5029588;28;20490;-78
2023/04/27 05:50:38;;;;;;;3.20;2.80;;;22.60;57.80;;;;;;5033710;28;20439;-79
2023/04/27 05:53:07;;;;;;;3.33;1.30;;;22.60;57.70;;;;;;5033168;28;20451;-76
2023/04/27 05:55:36;;;;;;;2.50;2.30;;;22.60;57.60;;;;;;5034558;28;20438;-77
2023/04/27 05:58:05;;;;;;;2.23;1.97;;;22.60;57.60;;;;;;5033167;28;20558;-77
2023/04/27 06:00:37;;;;;;;3.40;1.53;;;22.60;57.60;;;;;;5035606;28;20513;-81
2023/04/27 06:03:05;;;;;;;4.57;1.50;;;22.60;57.60;;;;;;5035282;28;20495;-74
2023/04/27 06:05:34;;;;;;;1.53;1.43;;;22.70;57.60;;;;;;5016205;28;20470;-76
2023/04/27 06:08:02;;;;;;;3.83;1.50;;;22.70;57.50;;;;;;5034254;28;20921;-76
2023/04/27 06:10:31;;;;;;;2.27;2.10;;;22.70;57.50;;;;;;5035680;28;20526;-76
2023/04/27 06:12:59;;;;;;;1.37;1.33;;;22.70;57.50;;;;;;5035351;28;20459;-80
2023/04/27 06:15:29;;;;;;;1.87;1.77;;;22.70;57.40;;;;;;5028790;28;20458;-87
2023/04/27 06:17:57;;;;;;;2.97;1.67;;;22.70;57.40;;;;;;5033873;28;21003;-74
2023/04/27 06:20:25;;;;;;;1.80;1.70;;;22.70;57.40;;;;;;5031969;28;20988;-74
2023/04/27 06:22:53;;;;;;;2.17;1.40;;;22.70;57.40;;;;;;5010874;28;20917;-74
2023/04/27 06:25:21;;;;;;;1.87;1.70;;;22.70;57.40;;;;;;5035485;28;20545;-74
2023/04/27 06:27:56;;;;;;;2.97;1.83;;;22.70;57.30;;;;;;5029461;28;20450;-74
2023/04/27 06:30:27;;;;;;;4.60;1.90;;;22.70;57.30;;;;;;5031795;28;20565;-74
2023/04/27 06:32:57;;;;;;;2.43;2.00;;;22.70;57.30;;;;;;5028808;28;20528;-75
2023/04/27 06:35:25;;;;;;;2.10;1.90;;;22.70;57.30;;;;;;5023653;28;20535;-74
2023/04/27 06:37:57;;;;;;;2.80;1.90;;;22.70;57.30;;;;;;5030646;28;20548;-78
2023/04/27 06:40:26;;;;;;;2.30;1.83;;;22.70;57.30;;;;;;5031651;28;20575;-74
2023/04/27 06:42:54;;;;;;;2.73;1.90;;;22.70;57.30;;;;;;5034764;28;20562;-76
2023/04/27 06:45:22;;;;;;;2.00;1.90;;;22.70;57.30;;;;;;5035967;28;20509;-75
2023/04/27 06:47:50;;;;;;;1.47;1.37;;;22.70;57.40;;;;;;5032368;28;20474;-74
2023/04/27 06:50:20;;;;;;;2.13;1.60;;;22.70;57.30;;;;;;5017110;28;20463;-75
2023/04/27 06:52:48;;;;;;;2.13;1.93;;;22.70;57.40;;;;;;5034657;28;20484;-77
2023/04/27 06:55:16;;;;;;;4.13;1.87;;;22.70;57.30;;;;;;5030242;28;20449;-74
2023/04/27 06:57:45;;;;;;;1.60;1.50;;;22.70;57.30;;;;;;5017598;28;20562;-74
2023/04/27 07:00:14;;;;;;;2.37;1.73;;;22.70;57.30;;;;;;5031364;28;20455;-74
2023/04/27 07:02:42;;;;;;;1.60;1.50;;;22.70;57.30;;;;;;5028488;28;20451;-74
2023/04/27 07:05:11;;;;;;;2.03;1.80;;;22.70;57.30;;;;;;5012562;28;20953;-74
2023/04/27 07:07:41;;;;;;;2.00;1.90;;;22.70;57.30;;;;;;5030507;28;20517;-80
2023/04/27 07:10:10;;;;;;;2.13;1.80;;;22.80;57.30;;;;;;5028212;28;20489;-74
2023/04/27 07:12:39;;;;;;;2.27;1.90;;;22.80;57.30;;;;;;5027456;28;20461;-76
2023/04/27 07:15:09;;;;;;;1.83;1.70;;;22.80;57.30;;;;;;5024367;28;20459;-75
2023/04/27 07:17:42;;;;;;;2.20;2.10;;;22.80;57.30;;;;;;5014754;28;20455;-77
2023/04/27 07:20:13;;;;;;;1.97;1.87;;;22.80;57.30;;;;;;5012656;28;20882;-74
2023/04/27 07:22:42;;;;;;;1.73;1.60;;;22.80;57.20;;;;;;5014173;28;20444;-74
2023/04/27 07:25:10;;;;;;;1.70;1.60;;;22.80;57.20;;;;;;5018783;28;20462;-74
2023/04/27 07:27:40;;;;;;;1.60;1.50;;;22.90;57.20;;;;;;5015258;28;20539;-78
2023/04/27 07:30:12;;;;;;;2.20;2.00;;;22.90;57.10;;;;;;5032788;28;20637;-74
2023/04/27 07:32:40;;;;;;;1.80;1.70;;;22.90;57.10;;;;;;5032283;28;20504;-79
2023/04/27 07:35:09;;;;;;;1.70;1.60;;;22.90;57.10;;;;;;5029875;28;20955;-74
2023/04/27 07:37:39;;;;;;;1.87;1.77;;;22.90;57.10;;;;;;5031724;28;20505;-75
2023/04/27 07:40:15;;;;;;;2.80;1.60;;;22.90;57.00;;;;;;5033566;28;20487;-74
2023/04/27 07:42:45;;;;;;;1.60;1.50;;;22.90;57.00;;;;;;5014851;28;20962;-74
2023/04/27 07:45:14;;;;;;;2.43;2.23;;;23.00;57.00;;;;;;5025534;28;20460;-74
2023/04/27 07:47:42;;;;;;;1.67;1.57;;;23.00;57.00;;;;;;5033329;28;20475;-76
2023/04/27 07:50:11;;;;;;;1.70;1.60;;;23.00;56.90;;;;;;5015144;28;20475;-74
2023/04/27 07:52:39;;;;;;;2.13;2.00;;;23.00;56.90;;;;;;5027171;28;20544;-77
2023/04/27 07:55:09;;;;;;;2.40;1.70;;;23.00;56.90;;;;;;5012830;28;20560;-75
2023/04/27 07:57:38;;;;;;;2.20;2.10;;;23.00;56.80;;;;;;5032338;28;20940;-80
2023/04/27 08:00:09;;;;;;;1.47;1.37;;;23.10;56.80;;;;;;5032270;28;20483;-74
2023/04/27 08:02:39;;;;;;;2.93;2.13;;;23.00;56.80;;;;;;5036537;28;20473;-75
2023/04/27 08:05:09;;;;;;;3.20;2.40;;;23.00;56.70;;;;;;5032506;28;20484;-72
2023/04/27 08:07:37;;;;;;;1.70;1.60;;;23.00;56.80;;;;;;5017517;28;20460;-71
2023/04/27 08:10:13;;;;;;;1.93;1.83;;;23.10;57.00;;;;;;5030862;28;21003;-72
2023/04/27 08:12:41;;;;;;;2.10;1.90;;;23.10;57.10;;;;;;5029609;28;20459;-73
2023/04/27 08:15:11;;;;;;;1.90;1.80;;;23.10;57.20;;;;;;5024189;28;20527;-71
2023/04/27 08:17:40;;;;;;;2.00;1.80;;;23.10;57.20;;;;;;5027935;28;20452;-71
2023/04/27 08:20:11;;;;;;;1.87;1.77;;;23.10;57.20;;;;;;5026663;28;20459;-74
2023/04/27 08:22:40;;;;;;;2.37;2.20;;;23.20;57.20;;;;;;5025894;28;20448;-75
2023/04/27 08:25:08;;;;;;;5.30;1.80;;;23.20;57.20;;;;;;5043730;28;20551;-72
2023/04/27 08:27:39;;;;;;;2.27;1.97;;;23.20;57.20;;;;;;5017273;28;20457;-76
2023/04/27 08:30:09;;;;;;;1.70;1.60;;;23.30;57.20;;;;;;5031196;28;20479;-75
2023/04/27 08:32:37;;;;;;;2.17;1.97;;;23.30;57.00;;;;;;5024162;28;20469;-75
2023/04/27 08:35:06;;;;;;;1.90;1.80;;;23.30;57.00;;;;;;5029117;28;20466;-72
2023/04/27 08:37:36;;;;;;;2.17;1.63;;;23.40;56.90;;;;;;5020144;28;20492;-73
2023/04/27 08:40:06;;;;;;;3.90;1.90;;;23.40;56.90;;;;;;5028581;28;21006;-73
2023/04/27 08:42:35;;;;;;;1.93;1.83;;;23.40;56.90;;;;;;5029822;28;20449;-72
2023/04/27 08:45:08;;;;;;;1.60;1.50;;;23.40;56.80;;;;;;5022827;28;20492;-72
2023/04/27 08:47:38;;;;;;;2.83;1.80;;;23.50;56.80;;;;;;5024120;28;21026;-71
2023/04/27 08:50:11;;;;;;;2.90;1.80;;;23.50;56.80;;;;;;5026925;28;20499;-73
2023/04/27 08:52:43;;;;;;;2.67;1.73;;;23.50;56.80;;;;;;5023593;28;20456;-73
2023/04/27 08:55:11;;;;;;;2.03;1.70;;;23.50;56.80;;;;;;5023838;28;20501;-73
2023/04/27 08:57:54;;;;;;;1.67;1.57;;;23.50;56.70;;;;;;5025026;28;20492;-74
2023/04/27 09:00:27;;;;;;;2.70;2.50;;;23.60;56.80;;;;;;5026720;28;20547;-71
2023/04/27 09:02:56;;;;;;;1.87;1.67;;;23.60;56.80;;;;;;5027790;28;20453;-72
2023/04/27 09:05:24;;;;;;;1.70;1.60;;;23.60;56.90;;;;;;5026189;28;20449;-73
2023/04/27 09:07:57;;;;;;;1.70;1.50;;;23.60;56.80;;;;;;5024348;28;20856;-73
2023/04/27 09:10:27;;;;;;;1.97;1.87;;;23.60;56.80;;;;;;5018901;28;20484;-71
2023/04/27 09:12:58;;;;;;;1.53;1.43;;;23.60;56.80;;;;;;5016716;28;20455;-73
2023/04/27 09:15:28;;;;;;;1.63;1.53;;;23.60;56.80;;;;;;5024000;28;20564;-72
2023/04/27 09:17:57;;;;;;;4.67;1.70;;;23.70;56.80;;;;;;5027345;28;20456;-75
2023/04/27 09:20:27;;;;;;;2.30;2.10;;;23.70;56.80;;;;;;5030338;28;20448;-74
2023/04/27 09:22:56;;;;;;;1.87;1.77;;;23.70;56.80;;;;;;5021260;28;20445;-73
2023/04/27 09:25:27;;;;;;;1.80;1.70;;;23.70;56.70;;;;;;5008400;28;20444;-73
2023/04/27 09:27:56;;;;;;;1.83;1.73;;;23.70;56.70;;;;;;5026457;28;21013;-72
2023/04/27 09:34:26;;;;;;;1.93;1.83;;;23.80;56.80;;;;;;5029643;28;20494;-72
2023/04/27 09:36:54;;;;;;;2.47;1.80;;;23.70;56.80;;;;;;5030359;28;20543;-73
2023/04/27 09:39:25;;;;;;;2.00;1.90;;;23.80;56.80;;;;;;5028323;28;20487;-72
2023/04/27 09:41:54;;;;;;;2.20;2.00;;;23.80;56.70;;;;;;5025688;28;20448;-73
2023/04/27 09:44:22;;;;;;;2.87;1.63;;;23.80;56.70;;;;;;5031056;28;20444;-73
2023/04/27 09:46:52;;;;;;;1.93;1.83;;;23.80;56.70;;;;;;5027559;28;21010;-72
2023/04/27 09:49:22;;;;;;;2.77;2.23;;;23.80;56.60;;;;;;5018888;28;20456;-75
2023/04/27 09:51:53;;;;;;;2.07;1.97;;;23.80;56.60;;;;;;5030045;28;21159;-73
2023/04/27 09:54:24;;;;;;;2.10;1.90;;;23.80;56.60;;;;;;5030655;28;20480;-72
2023/04/27 09:57:03;;;;;;;1.90;1.80;;;23.80;56.60;;;;;;5030623;28;20532;-74
2023/04/27 09:59:47;;;;;;;2.10;1.60;;;23.80;56.70;;;;;;5020913;28;20465;-73
2023/04/27 10:02:18;;;;;;;1.97;1.80;;;23.90;56.60;;;;;;5030375;28;20487;-73
2023/04/27 10:05:24;;;;;;;1.80;1.70;;;23.90;56.60;;;;;;5029227;28;20457;-74
2023/04/27 10:07:54;;;;;;;2.27;2.07;;;23.90;56.60;;;;;;5019795;28;20834;-74
2023/04/27 10:10:22;;;;;;;1.60;1.50;;;23.90;56.60;;;;;;5027033;28;20507;-73
2023/04/27 10:12:57;;;;;;;2.43;1.97;;;23.90;56.60;;;;;;5021227;28;20466;-72
2023/04/27 10:15:27;;;;;;;3.33;1.73;;;24.00;56.60;;;;;;5023837;28;20494;-74
2023/04/27 10:17:57;;;;;;;1.90;1.80;;;24.00;56.70;;;;;;5027456;28;20440;-73
2023/04/27 10:20:30;;;;;;;2.10;1.70;;;24.00;56.60;;;;;;5030451;28;20533;-72
2023/04/27 10:23:00;;;;;;;2.23;1.70;;;24.00;56.50;;;;;;5021803;28;20539;-72
2023/04/27 10:25:30;;;;;;;1.47;1.37;;;24.00;56.60;;;;;;5027993;28;20491;-73
2023/04/27 10:27:59;;;;;;;2.53;1.60;;;24.00;56.60;;;;;;5029544;28;20544;-72
2023/04/27 10:30:32;;;;;;;2.53;2.23;;;24.10;56.50;;;;;;5033915;28;20453;-72
2023/04/27 10:33:07;;;;;;;2.97;2.03;;;24.10;56.50;;;;;;5032832;28;20980;-72
2023/04/27 10:35:37;;;;;;;1.83;1.57;;;24.10;56.50;;;;;;5033747;28;20445;-72
2023/04/27 10:38:08;;;;;;;1.80;1.70;;;24.10;56.40;;;;;;5004865;28;20558;-71
2023/04/27 10:40:39;;;;;;;4.63;1.80;;;24.10;56.40;;;;;;5032791;28;20946;-71
2023/04/27 10:43:12;;;;;;;2.00;1.80;;;24.10;56.40;;;;;;5033583;28;20514;-72
2023/04/27 10:45:41;;;;;;;1.77;1.67;;;24.10;56.40;;;;;;5017157;28;20551;-71
2023/04/27 10:48:13;;;;;;;1.77;1.67;;;24.20;56.30;;;;;;5034239;28;20890;-72
2023/04/27 10:50:43;;;;;;;2.10;1.80;;;24.20;56.40;;;;;;5025108;28;20460;-71
2023/04/27 10:53:14;;;;;;;3.87;1.90;;;24.20;56.40;;;;;;5028121;28;20461;-72
2023/04/27 10:55:42;;;;;;;1.60;1.50;;;24.20;56.40;;;;;;5027786;28;20452;-73
2023/04/27 10:58:10;;;;;;;2.33;1.33;;;24.20;56.40;;;;;;5033289;28;20452;-72
2023/04/27 11:00:42;;;;;;;1.60;1.37;;;24.30;56.30;;;;;;5034190;28;20532;-75
2023/04/27 11:03:15;;;;;;;1.53;1.43;;;24.30;56.20;;;;;;5032182;28;20531;-73
2023/04/27 11:05:45;;;;;;;1.77;1.63;;;24.30;55.90;;;;;;5024177;28;20946;-81
2023/04/27 11:08:16;;;;;;;2.50;2.00;;;24.30;55.80;;;;;;5026056;28;20964;-72
2023/04/27 11:10:48;;;;;;;1.53;1.43;;;24.30;55.70;;;;;;5031068;28;20458;-73
2023/04/27 11:13:18;;;;;;;1.80;1.70;;;24.30;55.70;;;;;;5027891;28;20527;-72
2023/04/27 11:15:48;;;;;;;1.53;1.43;;;24.30;55.70;;;;;;5033269;28;20446;-72
2023/04/27 11:18:18;;;;;;;1.77;1.67;;;24.30;55.70;;;;;;5033235;28;20456;-72
2023/04/27 11:20:48;;;;;;;1.77;1.67;;;24.30;55.70;;;;;;5025329;28;20458;-73
2023/04/27 11:23:25;;;;;;;2.00;1.90;;;24.30;55.60;;;;;;5030630;28;20504;-74
2023/04/27 11:25:53;;;;;;;2.37;1.70;;;24.40;55.50;;;;;;5019468;28;20454;-75
2023/04/27 11:28:23;;;;;;;1.70;1.60;;;24.40;55.50;;;;;;5031861;28;20544;-78
2023/04/27 11:30:57;;;;;;;2.10;1.90;;;24.40;55.40;;;;;;5033241;28;20482;-80
2023/04/27 11:33:26;;;;;;;1.80;1.70;;;24.50;55.40;;;;;;5028705;28;20473;-75
2023/04/27 11:35:55;;;;;;;1.60;1.50;;;24.60;55.30;;;;;;5032817;28;20447;-75
2023/04/27 11:38:26;;;;;;;1.60;1.50;;;24.60;55.20;;;;;;5026901;28;20626;-74
2023/04/27 11:41:02;;;;;;;2.00;1.80;;;24.70;55.10;;;;;;5030031;28;20453;-77
2023/04/27 11:43:31;;;;;;;1.93;1.67;;;24.80;54.90;;;;;;5027806;28;20481;-75
2023/04/27 11:46:03;;;;;;;1.80;1.70;;;24.80;54.80;;;;;;5027170;28;20931;-71
2023/04/27 11:48:32;;;;;;;1.73;1.63;;;24.90;54.70;;;;;;5022624;28;20942;-73
2023/04/27 11:51:00;;;;;;;1.70;1.60;;;25.00;54.50;;;;;;5014373;28;20581;-73
2023/04/27 11:53:34;;;;;;;1.90;1.80;;;25.00;54.40;;;;;;5024180;28;20582;-72
2023/04/27 11:56:04;;;;;;;1.93;1.80;;;25.00;54.50;;;;;;5029686;28;20457;-74
2023/04/27 11:58:34;;;;;;;1.50;1.50;;;24.90;54.60;;;;;;5031132;28;20497;-74
2023/04/27 12:01:03;;;;;;;2.20;2.10;;;24.90;54.80;;;;;;5015311;28;20523;-80
2023/04/27 12:03:31;;;;;;;2.40;2.20;;;24.90;54.70;;;;;;5030616;28;20474;-74
2023/04/27 12:06:00;;;;;;;1.83;1.73;;;24.90;54.70;;;;;;5024754;28;20462;-74
2023/04/27 12:08:50;;;;;;;2.20;1.93;;;24.90;54.80;;;;;;5024416;28;20454;-78
2023/04/27 12:11:20;;;;;;;2.33;2.13;;;24.80;54.70;;;;;;5021831;28;20449;-74
2023/04/27 12:13:48;;;;;;;1.57;1.43;;;24.80;54.80;;;;;;5024916;28;20510;-74
2023/04/27 12:16:17;;;;;;;2.10;1.90;;;24.80;54.80;;;;;;5023984;28;20466;-73
2023/04/27 12:18:45;;;;;;;2.50;1.77;;;24.70;54.70;;;;;;5032333;28;20512;-74
2023/04/27 12:21:14;;;;;;;2.13;2.00;;;24.70;54.90;;;;;;5025557;28;20471;-76
2023/04/27 12:23:43;;;;;;;1.70;1.60;;;24.60;55.00;;;;;;5012562;28;21026;-77
2023/04/27 12:26:14;;;;;;;3.80;2.63;;;24.50;55.10;;;;;;5024770;28;20777;-76
2023/04/27 12:28:43;;;;;;;2.20;1.67;;;24.50;55.20;;;;;;5023871;28;20985;-75
2023/04/27 12:31:17;;;;;;;2.03;1.93;;;24.40;55.30;;;;;;5026524;28;20446;-77
2023/04/27 12:33:48;;;;;;;2.03;1.83;;;24.40;55.40;;;;;;5021871;28;20505;-74
2023/04/27 12:36:16;;;;;;;2.60;2.00;;;24.40;55.40;;;;;;5021992;28;20456;-74
2023/04/27 12:38:45;;;;;;;2.90;2.27;;;24.30;55.50;;;;;;5029695;28;20524;-75
2023/04/27 12:41:15;;;;;;;2.73;2.07;;;24.30;55.60;;;;;;5009211;28;20462;-76
2023/04/27 12:43:47;;;;;;;4.27;2.13;;;24.30;55.70;;;;;;5027930;28;20464;-76
2023/04/27 12:46:17;;;;;;;3.50;2.93;;;24.30;55.70;;;;;;5020339;28;20470;-75
2023/04/27 12:48:45;;;;;;;3.50;1.80;;;24.40;56.00;;;;;;5021322;28;20453;-75
2023/04/27 12:51:14;;;;;;;5.30;1.93;;;24.40;55.60;;;;;;5018634;28;21280;-78
2023/04/27 12:53:42;;;;;;;6.07;2.40;;;24.40;55.50;;;;;;5026872;28;21034;-79
2023/04/27 12:56:10;;;;;;;2.00;1.77;;;24.50;55.50;;;;;;5029452;28;20452;-80
2023/04/27 12:58:40;;;;;;;2.27;2.07;;;24.60;55.60;;;;;;5023393;28;20525;-80
2023/04/27 13:01:13;;;;;;;3.87;2.00;;;24.70;55.60;;;;;;5019525;28;20457;-81
2023/04/27 13:03:42;;;;;;;8.20;2.37;;;24.80;55.60;;;;;;5022433;28;20445;-79